Terminal Aerodrome Forecast
Issued by NWS

Home | Current Version | Previous Version | Text Only | Print | Product List | Glossary On
Versions: 1 2 3 4 5 6 7 8 9 10 11 12 13 14
000
FTUS42 KTBW 061248 AAA
TAFPIE
TAF AMD
KPIE 061248Z 0613/0712 03007KT P6SM FEW005 SCT010 SCT250
      TEMPO 0613/0614 1SM BR BKN003
     FM061500 03006KT P6SM FEW025 SCT250
     FM061800 36005KT P6SM SCT040 SCT250
     FM062000 32010KT P6SM SCT050 SCT250
     FM070000 36008KT P6SM SCT060 SCT250
     FM070300 05005KT P6SM SCT250=

USA.gov is the U.S. government's official web portal to all federal, state and local government web resources and services.